sensor_id;sensor_type;location;lat;lon;timestamp;pressure;altitude;pressure_sealevel;temperature;humidity
24440;BME280;12618;54.386;18.394;2022-12-11T00:00:24;99204.42;;;-6.21;100.00
24440;BME280;12618;54.386;18.394;2022-12-11T00:02:54;99202.75;;;-6.16;100.00
24440;BME280;12618;54.386;18.394;2022-12-11T00:05:25;99201.97;;;-6.11;100.00
24440;BME280;12618;54.386;18.394;2022-12-11T00:07:56;99200.73;;;-6.05;100.00
24440;BME280;12618;54.386;18.394;2022-12-11T00:10:27;99202.09;;;-5.99;100.00
24440;BME280;12618;54.386;18.394;2022-12-11T00:12:58;99193.59;;;-5.92;100.00
24440;BME280;12618;54.386;18.394;2022-12-11T00:15:29;99197.88;;;-5.88;100.00
24440;BME280;12618;54.386;18.394;2022-12-11T00:18:01;99191.91;;;-5.87;100.00
24440;BME280;12618;54.386;18.394;2022-12-11T00:20:32;99190.17;;;-5.91;100.00
24440;BME280;12618;54.386;18.394;2022-12-11T00:23:03;99186.72;;;-5.93;100.00
24440;BME280;12618;54.386;18.394;2022-12-11T00:25:34;99182.02;;;-5.92;100.00
24440;BME280;12618;54.386;18.394;2022-12-11T00:28:04;99182.47;;;-5.91;100.00
24440;BME280;12618;54.386;18.394;2022-12-11T00:30:40;99177.30;;;-5.94;100.00
24440;BME280;12618;54.386;18.394;2022-12-11T00:33:07;99181.59;;;-5.93;100.00
24440;BME280;12618;54.386;18.394;2022-12-11T00:35:39;99184.12;;;-5.96;100.00
24440;BME280;12618;54.386;18.394;2022-12-11T00:38:18;99190.91;;;-6.02;100.00
24440;BME280;12618;54.386;18.394;2022-12-11T00:40:45;99192.58;;;-6.09;100.00
24440;BME280;12618;54.386;18.394;2022-12-11T00:43:16;99199.76;;;-6.16;100.00
24440;BME280;12618;54.386;18.394;2022-12-11T00:45:46;99202.27;;;-6.22;100.00
24440;BME280;12618;54.386;18.394;2022-12-11T00:48:17;99206.48;;;-6.27;100.00
24440;BME280;12618;54.386;18.394;2022-12-11T00:50:47;99206.48;;;-6.30;100.00
24440;BME280;12618;54.386;18.394;2022-12-11T00:53:18;99204.31;;;-6.32;100.00
24440;BME280;12618;54.386;18.394;2022-12-11T00:55:49;99211.17;;;-6.28;100.00
24440;BME280;12618;54.386;18.394;2022-12-11T00:58:19;99200.91;;;-6.28;100.00
24440;BME280;12618;54.386;18.394;2022-12-11T01:00:50;99199.20;;;-6.31;100.00
24440;BME280;12618;54.386;18.394;2022-12-11T01:03:21;99200.92;;;-6.30;100.00
24440;BME280;12618;54.386;18.394;2022-12-11T01:05:54;99193.69;;;-6.24;100.00
24440;BME280;12618;54.386;18.394;2022-12-11T01:08:25;99193.77;;;-6.16;100.00
24440;BME280;12618;54.386;18.394;2022-12-11T01:11:02;99188.77;;;-6.03;100.00
24440;BME280;12618;54.386;18.394;2022-12-11T01:13:34;99182.47;;;-5.91;100.00
24440;BME280;12618;54.386;18.394;2022-12-11T01:16:05;99184.67;;;-5.79;100.00
24440;BME280;12618;54.386;18.394;2022-12-11T01:18:36;99186.06;;;-5.67;100.00
24440;BME280;12618;54.386;18.394;2022-12-11T01:21:08;99196.05;;;-5.53;100.00
24440;BME280;12618;54.386;18.394;2022-12-11T01:23:39;99192.69;;;-5.40;100.00
24440;BME280;12618;54.386;18.394;2022-12-11T01:26:11;99189.36;;;-5.31;100.00
24440;BME280;12618;54.386;18.394;2022-12-11T01:28:42;99184.64;;;-5.27;100.00
24440;BME280;12618;54.386;18.394;2022-12-11T01:31:13;99185.09;;;-5.25;100.00
24440;BME280;12618;54.386;18.394;2022-12-11T01:33:44;99183.41;;;-5.23;100.00
24440;BME280;12618;54.386;18.394;2022-12-11T01:36:16;99176.97;;;-5.23;100.00
24440;BME280;12618;54.386;18.394;2022-12-11T01:38:47;99185.13;;;-5.19;100.00
24440;BME280;12618;54.386;18.394;2022-12-11T01:41:18;99181.76;;;-5.11;100.00
24440;BME280;12618;54.386;18.394;2022-12-11T01:44:02;99179.63;;;-5.06;100.00
24440;BME280;12618;54.386;18.394;2022-12-11T01:46:30;99178.41;;;-4.98;100.00
24440;BME280;12618;54.386;18.394;2022-12-11T01:49:02;99173.70;;;-4.94;100.00
24440;BME280;12618;54.386;18.394;2022-12-11T01:51:35;99173.32;;;-4.88;100.00
24440;BME280;12618;54.386;18.394;2022-12-11T01:54:06;99169.04;;;-4.87;100.00
24440;BME280;12618;54.386;18.394;2022-12-11T01:56:38;99163.45;;;-4.85;100.00
24440;BME280;12618;54.386;18.394;2022-12-11T01:59:10;99159.17;;;-4.83;100.00
24440;BME280;12618;54.386;18.394;2022-12-11T02:01:59;99162.64;;;-4.78;100.00
24440;BME280;12618;54.386;18.394;2022-12-11T02:04:30;99165.64;;;-4.74;100.00
24440;BME280;12618;54.386;18.394;2022-12-11T02:07:02;99160.11;;;-4.67;100.00
24440;BME280;12618;54.386;18.394;2022-12-11T02:09:33;99160.11;;;-4.63;100.00
24440;BME280;12618;54.386;18.394;2022-12-11T02:12:11;99161.84;;;-4.62;100.00
24440;BME280;12618;54.386;18.394;2022-12-11T02:14:45;99159.70;;;-4.61;100.00
24440;BME280;12618;54.386;18.394;2022-12-11T02:19:50;99158.84;;;-4.60;100.00
24440;BME280;12618;54.386;18.394;2022-12-11T02:25:15;99155.87;;;-4.50;100.00
24440;BME280;12618;54.386;18.394;2022-12-11T02:27:47;99153.30;;;-4.49;100.00
24440;BME280;12618;54.386;18.394;2022-12-11T02:30:17;99150.75;;;-4.46;100.00
24440;BME280;12618;54.386;18.394;2022-12-11T02:32:54;99146.87;;;-4.47;100.00
24440;BME280;12618;54.386;18.394;2022-12-11T02:35:35;99145.16;;;-4.47;100.00
24440;BME280;12618;54.386;18.394;2022-12-11T02:38:07;99141.30;;;-4.47;100.00
24440;BME280;12618;54.386;18.394;2022-12-11T02:40:39;99136.17;;;-4.44;100.00
24440;BME280;12618;54.386;18.394;2022-12-11T02:43:10;99143.89;;;-4.39;100.00
24440;BME280;12618;54.386;18.394;2022-12-11T02:45:42;99135.31;;;-4.36;100.00
24440;BME280;12618;54.386;18.394;2022-12-11T02:48:14;99138.77;;;-4.31;100.00
24440;BME280;12618;54.386;18.394;2022-12-11T02:50:46;99146.06;;;-4.26;100.00
24440;BME280;12618;54.386;18.394;2022-12-11T02:53:19;99147.39;;;-4.20;100.00
24440;BME280;12618;54.386;18.394;2022-12-11T02:55:51;99146.09;;;-4.14;100.00
24440;BME280;12618;54.386;18.394;2022-12-11T02:58:23;99138.81;;;-4.10;100.00
24440;BME280;12618;54.386;18.394;2022-12-11T03:00:55;99134.09;;;-4.03;100.00
24440;BME280;12618;54.386;18.394;2022-12-11T03:03:26;99131.52;;;-4.00;100.00
24440;BME280;12618;54.386;18.394;2022-12-11T03:05:57;99134.52;;;-3.96;100.00
24440;BME280;12618;54.386;18.394;2022-12-11T03:08:28;99137.97;;;-3.91;100.00
24440;BME280;12618;54.386;18.394;2022-12-11T03:10:58;99136.69;;;-3.88;100.00
24440;BME280;12618;54.386;18.394;2022-12-11T03:13:29;99137.55;;;-3.80;100.00
24440;BME280;12618;54.386;18.394;2022-12-11T03:18:41;99130.23;;;-3.70;100.00
24440;BME280;12618;54.386;18.394;2022-12-11T03:21:16;99129.39;;;-3.65;100.00
24440;BME280;12618;54.386;18.394;2022-12-11T03:24:05;99129.37;;;-3.61;100.00
24440;BME280;12618;54.386;18.394;2022-12-11T03:26:21;99123.36;;;-3.55;100.00
24440;BME280;12618;54.386;18.394;2022-12-11T03:28:59;99127.20;;;-3.49;100.00
24440;BME280;12618;54.386;18.394;2022-12-11T03:31:41;99115.17;;;-3.52;100.00
24440;BME280;12618;54.386;18.394;2022-12-11T03:34:17;99122.06;;;-3.43;100.00
24440;BME280;12618;54.386;18.394;2022-12-11T03:36:47;99123.32;;;-3.40;100.00
24440;BME280;12618;54.386;18.394;2022-12-11T03:39:38;99127.62;;;-3.39;100.00
24440;BME280;12618;54.386;18.394;2022-12-11T03:41:54;99134.51;;;-3.35;100.00
24440;BME280;12618;54.386;18.394;2022-12-11T03:44:26;99125.06;;;-3.50;100.00
24440;BME280;12618;54.386;18.394;2022-12-11T03:46:56;99129.37;;;-3.61;100.00
24440;BME280;12618;54.386;18.394;2022-12-11T03:49:31;99123.80;;;-3.76;100.00
24440;BME280;12618;54.386;18.394;2022-12-11T03:52:01;99131.52;;;-3.83;100.00
24440;BME280;12618;54.386;18.394;2022-12-11T03:54:32;99128.94;;;-3.92;100.00
24440;BME280;12618;54.386;18.394;2022-12-11T03:57:03;99129.80;;;-3.99;100.00
24440;BME280;12618;54.386;18.394;2022-12-11T03:59:35;99135.39;;;-4.00;100.00
24440;BME280;12618;54.386;18.394;2022-12-11T04:02:05;99136.23;;;-3.95;100.00
24440;BME280;12618;54.386;18.394;2022-12-11T04:04:38;99133.68;;;-3.89;100.00
24440;BME280;12618;54.386;18.394;2022-12-11T04:07:09;99134.95;;;-3.83;100.00
24440;BME280;12618;54.386;18.394;2022-12-11T04:09:40;99134.53;;;-3.81;100.00
24440;BME280;12618;54.386;18.394;2022-12-11T04:12:10;99128.95;;;-3.79;100.00
24440;BME280;12618;54.386;18.394;2022-12-11T04:14:40;99126.79;;;-3.73;100.00
24440;BME280;12618;54.386;18.394;2022-12-11T04:17:30;99120.78;;;-3.68;100.00
24440;BME280;12618;54.386;18.394;2022-12-11T04:20:19;99121.64;;;-3.70;100.00
24440;BME280;12618;54.386;18.394;2022-12-11T04:23:12;99120.77;;;-3.74;100.00
24440;BME280;12618;54.386;18.394;2022-12-11T04:26:11;99122.07;;;-3.83;100.00
24440;BME280;12618;54.386;18.394;2022-12-11T04:28:42;99123.78;;;-3.94;100.00
24440;BME280;12618;54.386;18.394;2022-12-11T04:31:18;99113.03;;;-4.07;100.00
24440;BME280;12618;54.386;18.394;2022-12-11T04:33:48;99114.73;;;-4.18;100.00
24440;BME280;12618;54.386;18.394;2022-12-11T04:36:19;99113.02;;;-4.31;100.00
24440;BME280;12618;54.386;18.394;2022-12-11T04:38:50;99124.16;;;-4.37;100.00
24440;BME280;12618;54.386;18.394;2022-12-11T04:41:20;99116.84;;;-4.41;100.00
24440;BME280;12618;54.386;18.394;2022-12-11T04:43:51;99120.72;;;-4.44;100.00
24440;BME280;12618;54.386;18.394;2022-12-11T04:46:22;99113.00;;;-4.42;100.00
24440;BME280;12618;54.386;18.394;2022-12-11T04:48:53;99115.13;;;-4.38;100.00
24440;BME280;12618;54.386;18.394;2022-12-11T04:51:25;99119.86;;;-4.36;100.00
24440;BME280;12618;54.386;18.394;2022-12-11T04:53:56;99114.73;;;-4.33;100.00
24440;BME280;12618;54.386;18.394;2022-12-11T04:56:27;99123.32;;;-4.31;100.00
24440;BME280;12618;54.386;18.394;2022-12-11T04:58:57;99128.46;;;-4.27;100.00
24440;BME280;12618;54.386;18.394;2022-12-11T05:01:28;99116.47;;;-4.20;100.00
24440;BME280;12618;54.386;18.394;2022-12-11T05:03:58;99110.03;;;-4.13;100.00
24440;BME280;12618;54.386;18.394;2022-12-11T05:06:29;99106.58;;;-4.07;100.00
24440;BME280;12618;54.386;18.394;2022-12-11T05:08:59;99108.33;;;-4.00;100.00
24440;BME280;12618;54.386;18.394;2022-12-11T05:11:30;99106.59;;;-3.95;100.00
24440;BME280;12618;54.386;18.394;2022-12-11T05:14:01;99102.73;;;-3.86;100.00
24440;BME280;12618;54.386;18.394;2022-12-11T05:16:31;99100.59;;;-3.79;100.00
24440;BME280;12618;54.386;18.394;2022-12-11T05:19:02;99094.13;;;-3.74;100.00
24440;BME280;12618;54.386;18.394;2022-12-11T05:21:32;99103.61;;;-3.65;100.00
24440;BME280;12618;54.386;18.394;2022-12-11T05:24:03;99103.58;;;-3.59;100.00
24440;BME280;12618;54.386;18.394;2022-12-11T05:26:33;99103.59;;;-3.55;100.00
24440;BME280;12618;54.386;18.394;2022-12-11T05:29:04;99096.25;;;-3.51;100.00
24440;BME280;12618;54.386;18.394;2022-12-11T05:31:35;99099.27;;;-3.45;100.00
24440;BME280;12618;54.386;18.394;2022-12-11T05:34:05;99104.41;;;-3.38;100.00
24440;BME280;12618;54.386;18.394;2022-12-11T05:36:36;99097.10;;;-3.35;100.00
24440;BME280;12618;54.386;18.394;2022-12-11T05:39:07;99097.50;;;-3.31;100.00
24440;BME280;12618;54.386;18.394;2022-12-11T05:41:38;99094.92;;;-3.28;100.00
24440;BME280;12618;54.386;18.394;2022-12-11T05:44:10;99096.64;;;-3.24;100.00
24440;BME280;12618;54.386;18.394;2022-12-11T05:46:40;99097.50;;;-3.20;100.00
24440;BME280;12618;54.386;18.394;2022-12-11T05:49:11;99099.20;;;-3.16;100.00
24440;BME280;12618;54.386;18.394;2022-12-11T05:51:41;99085.43;;;-3.14;100.00
24440;BME280;12618;54.386;18.394;2022-12-11T05:54:12;99081.98;;;-3.10;100.00
24440;BME280;12618;54.386;18.394;2022-12-11T05:56:43;99087.12;;;-3.04;100.00
24440;BME280;12618;54.386;18.394;2022-12-11T05:59:13;99081.95;;;-3.01;100.00
24440;BME280;12618;54.386;18.394;2022-12-11T06:01:44;99087.94;;;-2.96;100.00
24440;BME280;12618;54.386;18.394;2022-12-11T06:04:14;99081.91;;;-2.91;100.00
24440;BME280;12618;54.386;18.394;2022-12-11T06:06:45;99080.58;;;-2.85;100.00
24440;BME280;12618;54.386;18.394;2022-12-11T06:09:16;99068.09;;;-2.81;100.00
24440;BME280;12618;54.386;18.394;2022-12-11T06:11:46;99073.25;;;-2.78;100.00
24440;BME280;12618;54.386;18.394;2022-12-11T06:14:17;99068.91;;;-2.73;100.00
24440;BME280;12618;54.386;18.394;2022-12-11T06:16:52;99062.87;;;-2.69;100.00
24440;BME280;12618;54.386;18.394;2022-12-11T06:19:20;99055.55;;;-2.67;100.00
24440;BME280;12618;54.386;18.394;2022-12-11T06:21:50;99061.11;;;-2.64;100.00
24440;BME280;12618;54.386;18.394;2022-12-11T06:24:21;99069.70;;;-2.61;100.00
24440;BME280;12618;54.386;18.394;2022-12-11T06:26:51;99064.53;;;-2.59;100.00
24440;BME280;12618;54.386;18.394;2022-12-11T06:29:22;99065.78;;;-2.53;100.00
24440;BME280;12618;54.386;18.394;2022-12-11T06:31:52;99065.33;;;-2.48;100.00
24440;BME280;12618;54.386;18.394;2022-12-11T06:34:23;99070.91;;;-2.44;100.00
24440;BME280;12618;54.386;18.394;2022-12-11T06:36:53;99064.84;;;-2.43;100.00
24440;BME280;12618;54.386;18.394;2022-12-11T06:39:23;99068.70;;;-2.35;100.00
24440;BME280;12618;54.386;18.394;2022-12-11T06:41:56;99065.20;;;-2.28;100.00
24440;BME280;12618;54.386;18.394;2022-12-11T06:44:26;99067.33;;;-2.25;100.00
24440;BME280;12618;54.386;18.394;2022-12-11T06:46:57;99071.16;;;-2.18;100.00
24440;BME280;12618;54.386;18.394;2022-12-11T06:49:28;99077.59;;;-2.12;100.00
24440;BME280;12618;54.386;18.394;2022-12-11T06:51:59;99072.37;;;-2.08;100.00
24440;BME280;12618;54.386;18.394;2022-12-11T06:54:30;99083.55;;;-2.04;100.00
24440;BME280;12618;54.386;18.394;2022-12-11T06:57:00;99083.11;;;-2.01;100.00
24440;BME280;12618;54.386;18.394;2022-12-11T06:59:30;99080.91;;;-1.98;100.00
24440;BME280;12618;54.386;18.394;2022-12-11T07:02:01;99092.52;;;-1.94;100.00
24440;BME280;12618;54.386;18.394;2022-12-11T07:04:32;99079.14;;;-1.90;100.00
24440;BME280;12618;54.386;18.394;2022-12-11T07:07:03;99087.70;;;-1.85;100.00
24440;BME280;12618;54.386;18.394;2022-12-11T07:09:34;99086.39;;;-1.82;100.00
24440;BME280;12618;54.386;18.394;2022-12-11T07:12:06;99084.66;;;-1.80;100.00
24440;BME280;12618;54.386;18.394;2022-12-11T07:14:36;99085.45;;;-1.75;100.00
24440;BME280;12618;54.386;18.394;2022-12-11T07:17:07;99080.28;;;-1.75;100.00
24440;BME280;12618;54.386;18.394;2022-12-11T07:19:37;99071.64;;;-1.71;100.00
24440;BME280;12618;54.386;18.394;2022-12-11T07:22:08;99075.07;;;-1.67;100.00
24440;BME280;12618;54.386;18.394;2022-12-11T07:24:38;99076.73;;;-1.62;100.00
24440;BME280;12618;54.386;18.394;2022-12-11T07:27:09;99076.69;;;-1.56;100.00
24440;BME280;12618;54.386;18.394;2022-12-11T07:29:39;99073.19;;;-1.53;100.00
24440;BME280;12618;54.386;18.394;2022-12-11T07:32:10;99069.72;;;-1.51;100.00
24440;BME280;12618;54.386;18.394;2022-12-11T07:34:40;99069.70;;;-1.48;100.00
24440;BME280;12618;54.386;18.394;2022-12-11T07:37:11;99064.50;;;-1.44;100.00
24440;BME280;12618;54.386;18.394;2022-12-11T07:39:41;99063.58;;;-1.40;100.00
24440;BME280;12618;54.386;18.394;2022-12-11T07:42:12;99067.88;;;-1.38;100.00
24440;BME280;12618;54.386;18.394;2022-12-11T07:44:42;99060.95;;;-1.36;100.00
24440;BME280;12618;54.386;18.394;2022-12-11T07:47:13;99063.11;;;-1.35;100.00
24440;BME280;12618;54.386;18.394;2022-12-11T07:49:43;99063.05;;;-1.32;100.00
24440;BME280;12618;54.386;18.394;2022-12-11T07:52:14;99062.61;;;-1.30;100.00
24440;BME280;12618;54.386;18.394;2022-12-11T07:54:44;99054.39;;;-1.28;100.00
24440;BME280;12618;54.386;18.394;2022-12-11T07:57:15;99055.25;;;-1.28;100.00
24440;BME280;12618;54.386;18.394;2022-12-11T07:59:45;99055.22;;;-1.23;100.00
24440;BME280;12618;54.386;18.394;2022-12-11T08:02:16;99044.35;;;-1.18;100.00
24440;BME280;12618;54.386;18.394;2022-12-11T08:04:46;99047.75;;;-1.12;100.00
24440;BME280;12618;54.386;18.394;2022-12-11T08:07:17;99047.25;;;-1.08;100.00
24440;BME280;12618;54.386;18.394;2022-12-11T08:09:47;99045.93;;;-1.05;100.00
24440;BME280;12618;54.386;18.394;2022-12-11T08:12:18;99047.20;;;-1.02;100.00
24440;BME280;12618;54.386;18.394;2022-12-11T08:14:48;99056.63;;;-0.98;100.00
24440;BME280;12618;54.386;18.394;2022-12-11T08:17:19;99054.42;;;-0.94;100.00
24440;BME280;12618;54.386;18.394;2022-12-11T08:19:49;99060.81;;;-0.88;100.00
24440;BME280;12618;54.386;18.394;2022-12-11T08:22:20;99058.61;;;-0.84;100.00
24440;BME280;12618;54.386;18.394;2022-12-11T08:24:50;99058.59;;;-0.82;100.00
24440;BME280;12618;54.386;18.394;2022-12-11T08:27:21;99058.13;;;-0.79;100.00
24440;BME280;12618;54.386;18.394;2022-12-11T08:29:51;99061.94;;;-0.74;100.00
24440;BME280;12618;54.386;18.394;2022-12-11T08:32:21;99068.80;;;-0.68;100.00
24440;BME280;12618;54.386;18.394;2022-12-11T08:34:52;99067.85;;;-0.64;100.00
24440;BME280;12618;54.386;18.394;2022-12-11T08:37:22;99057.88;;;-0.60;100.00
24440;BME280;12618;54.386;18.394;2022-12-11T08:39:53;99057.42;;;-0.58;100.00
24440;BME280;12618;54.386;18.394;2022-12-11T08:42:23;99055.23;;;-0.56;100.00
24440;BME280;12618;54.386;18.394;2022-12-11T08:44:56;99056.48;;;-0.54;100.00
24440;BME280;12618;54.386;18.394;2022-12-11T08:47:26;99056.53;;;-0.56;100.00
24440;BME280;12618;54.386;18.394;2022-12-11T08:49:57;99061.52;;;-0.44;100.00
24440;BME280;12618;54.386;18.394;2022-12-11T08:52:27;99060.14;;;-0.36;100.00
24440;BME280;12618;54.386;18.394;2022-12-11T08:55:00;99063.05;;;-0.29;100.00
24440;BME280;12618;54.386;18.394;2022-12-11T08:57:30;99064.72;;;-0.25;100.00
24440;BME280;12618;54.386;18.394;2022-12-11T09:00:01;99059.02;;;-0.20;100.00
24440;BME280;12618;54.386;18.394;2022-12-11T09:02:31;99057.63;;;-0.12;100.00
24440;BME280;12618;54.386;18.394;2022-12-11T09:05:02;99054.94;;;-0.08;100.00
24440;BME280;12618;54.386;18.394;2022-12-11T09:07:35;99057.03;;;-0.03;100.00
24440;BME280;12618;54.386;18.394;2022-12-11T09:10:06;99062.53;;;0.05;100.00
24440;BME280;12618;54.386;18.394;2022-12-11T09:12:37;99049.08;;;0.08;100.00
24440;BME280;12618;54.386;18.394;2022-12-11T09:15:08;99047.77;;;0.10;100.00
24440;BME280;12618;54.386;18.394;2022-12-11T09:17:38;99051.59;;;0.11;100.00
24440;BME280;12618;54.386;18.394;2022-12-11T09:20:11;99056.34;;;0.12;100.00
24440;BME280;12618;54.386;18.394;2022-12-11T09:22:42;99057.20;;;0.12;100.00
24440;BME280;12618;54.386;18.394;2022-12-11T09:25:12;99060.73;;;0.10;100.00
24440;BME280;12618;54.386;18.394;2022-12-11T09:27:43;99062.48;;;0.08;100.00
24440;BME280;12618;54.386;18.394;2022-12-11T09:30:13;99061.23;;;0.05;100.00
24440;BME280;12618;54.386;18.394;2022-12-11T09:32:44;99054.33;;;0.04;100.00
24440;BME280;12618;54.386;18.394;2022-12-11T09:35:15;99047.01;;;0.02;100.00
24440;BME280;12618;54.386;18.394;2022-12-11T09:37:45;99038.42;;;-0.01;100.00
24440;BME280;12618;54.386;18.394;2022-12-11T09:40:16;99035.89;;;-0.05;100.00
24440;BME280;12618;54.386;18.394;2022-12-11T09:42:49;99032.89;;;-0.08;100.00
24440;BME280;12618;54.386;18.394;2022-12-11T09:45:19;99038.92;;;-0.06;100.00
24440;BME280;12618;54.386;18.394;2022-12-11T09:47:51;99038.50;;;-0.07;100.00
24440;BME280;12618;54.386;18.394;2022-12-11T09:50:25;99035.03;;;-0.06;100.00
24440;BME280;12618;54.386;18.394;2022-12-11T09:55:36;99040.59;;;-0.02;100.00
24440;BME280;12618;54.386;18.394;2022-12-11T10:01:05;99030.14;;;0.02;100.00
24440;BME280;12618;54.386;18.394;2022-12-11T10:06:32;99027.03;;;0.08;100.00
24440;BME280;12618;54.386;18.394;2022-12-11T10:09:12;99027.86;;;0.10;100.00
24440;BME280;12618;54.386;18.394;2022-12-11T10:17:09;99034.84;;;0.32;100.00
24440;BME280;12618;54.386;18.394;2022-12-11T10:19:38;99037.06;;;0.28;100.00
24440;BME280;12618;54.386;18.394;2022-12-11T10:22:16;99036.23;;;0.26;100.00
24440;BME280;12618;54.386;18.394;2022-12-11T10:24:51;99044.89;;;0.25;100.00
24440;BME280;12618;54.386;18.394;2022-12-11T10:27:19;99031.99;;;0.22;100.00
24440;BME280;12618;54.386;18.394;2022-12-11T10:29:59;99023.00;;;0.16;100.00
24440;BME280;12618;54.386;18.394;2022-12-11T10:32:32;99027.79;;;0.13;100.00
24440;BME280;12618;54.386;18.394;2022-12-11T10:35:00;99020.89;;;0.12;100.00
24440;BME280;12618;54.386;18.394;2022-12-11T10:37:31;99013.78;;;-0.01;100.00
24440;BME280;12618;54.386;18.394;2022-12-11T10:40:01;99013.08;;;0.14;100.00
24440;BME280;12618;54.386;18.394;2022-12-11T10:42:34;99004.23;;;0.25;100.00
24440;BME280;12618;54.386;18.394;2022-12-11T10:45:05;99002.32;;;0.35;100.00
24440;BME280;12618;54.386;18.394;2022-12-11T10:47:36;99000.52;;;0.40;100.00
24440;BME280;12618;54.386;18.394;2022-12-11T10:50:06;99001.69;;;0.46;100.00
24440;BME280;12618;54.386;18.394;2022-12-11T10:52:41;98991.84;;;0.41;100.00
24440;BME280;12618;54.386;18.394;2022-12-11T10:55:23;98992.44;;;0.33;100.00
24440;BME280;12618;54.386;18.394;2022-12-11T10:57:57;98989.30;;;0.38;100.00
24440;BME280;12618;54.386;18.394;2022-12-11T11:00:36;98985.31;;;0.44;100.00
24440;BME280;12618;54.386;18.394;2022-12-11T11:03:22;98977.11;;;0.43;100.00
24440;BME280;12618;54.386;18.394;2022-12-11T11:05:49;98968.44;;;0.44;100.00
24440;BME280;12618;54.386;18.394;2022-12-11T11:08:21;98975.39;;;0.42;100.00
24440;BME280;12618;54.386;18.394;2022-12-11T11:10:56;98968.44;;;0.44;100.00
24440;BME280;12618;54.386;18.394;2022-12-11T11:13:28;98963.14;;;0.49;100.00
24440;BME280;12618;54.386;18.394;2022-12-11T11:18:31;98959.58;;;0.54;100.00
24440;BME280;12618;54.386;18.394;2022-12-11T11:21:02;98957.45;;;0.52;100.00
24440;BME280;12618;54.386;18.394;2022-12-11T11:23:33;98951.89;;;0.48;100.00
24440;BME280;12618;54.386;18.394;2022-12-11T11:26:05;98954.55;;;0.45;100.00
24440;BME280;12618;54.386;18.394;2022-12-11T11:28:40;98949.02;;;0.41;100.00
24440;BME280;12618;54.386;18.394;2022-12-11T11:31:13;98945.56;;;0.41;100.00
24440;BME280;12618;54.386;18.394;2022-12-11T11:36:23;98930.44;;;0.40;100.00
24440;BME280;12618;54.386;18.394;2022-12-11T11:41:38;98931.50;;;0.52;100.00
24440;BME280;12618;54.386;18.394;2022-12-11T11:44:05;98936.22;;;0.54;100.00
24440;BME280;12618;54.386;18.394;2022-12-11T11:51:53;98916.69;;;0.56;100.00
24440;BME280;12618;54.386;18.394;2022-12-11T11:54:36;98916.22;;;0.58;100.00
24440;BME280;12618;54.386;18.394;2022-12-11T11:57:18;98916.25;;;0.56;100.00
24440;BME280;12618;54.386;18.394;2022-12-11T11:59:50;98909.34;;;0.55;100.00
24440;BME280;12618;54.386;18.394;2022-12-11T12:02:21;98904.15;;;0.55;100.00
24440;BME280;12618;54.386;18.394;2022-12-11T12:04:51;98900.67;;;0.56;100.00
24440;BME280;12618;54.386;18.394;2022-12-11T12:07:31;98901.47;;;0.60;100.00
24440;BME280;12618;54.386;18.394;2022-12-11T12:10:13;98905.95;;;0.53;100.00
24440;BME280;12618;54.386;18.394;2022-12-11T12:13:00;98899.93;;;0.51;100.00
24440;BME280;12618;54.386;18.394;2022-12-11T12:15:50;98904.21;;;0.54;100.00
24440;BME280;12618;54.386;18.394;2022-12-11T12:21:18;98903.41;;;0.50;100.00
24440;BME280;12618;54.386;18.394;2022-12-11T12:26:34;98898.63;;;0.51;100.00
24440;BME280;12618;54.386;18.394;2022-12-11T12:31:52;98889.66;;;0.45;100.00
24440;BME280;12618;54.386;18.394;2022-12-11T12:37:21;98891.36;;;0.46;100.00
24440;BME280;12618;54.386;18.394;2022-12-11T12:47:45;98883.72;;;0.40;100.00
24440;BME280;12618;54.386;18.394;2022-12-11T12:50:24;98881.13;;;0.40;100.00
24440;BME280;12618;54.386;18.394;2022-12-11T12:52:55;98878.14;;;0.38;100.00
24440;BME280;12618;54.386;18.394;2022-12-11T12:55:31;98863.01;;;0.37;100.00
24440;BME280;12618;54.386;18.394;2022-12-11T12:58:02;98873.39;;;0.37;100.00
24440;BME280;12618;54.386;18.394;2022-12-11T13:03:16;98870.05;;;0.32;100.00
24440;BME280;12618;54.386;18.394;2022-12-11T13:05:58;98865.80;;;0.28;100.00
24440;BME280;12618;54.386;18.394;2022-12-11T13:08:36;98851.55;;;0.26;100.00
24440;BME280;12618;54.386;18.394;2022-12-11T13:11:06;98855.55;;;0.22;100.00
24440;BME280;12618;54.386;18.394;2022-12-11T13:13:39;98859.91;;;0.20;100.00
24440;BME280;12618;54.386;18.394;2022-12-11T13:18:48;98862.63;;;0.12;100.00
24440;BME280;12618;54.386;18.394;2022-12-11T13:24:13;98863.59;;;0.08;100.00
24440;BME280;12618;54.386;18.394;2022-12-11T13:26:42;98853.72;;;0.05;100.00
24440;BME280;12618;54.386;18.394;2022-12-11T13:29:31;98857.14;;;0.07;100.00
24440;BME280;12618;54.386;18.394;2022-12-11T13:32:19;98867.15;;;0.03;100.00
24440;BME280;12618;54.386;18.394;2022-12-11T13:34:36;98862.92;;;-0.02;100.00
24440;BME280;12618;54.386;18.394;2022-12-11T13:37:25;98860.33;;;-0.02;100.00
24440;BME280;12618;54.386;18.394;2022-12-11T13:39:52;98866.01;;;-0.05;100.00
24440;BME280;12618;54.386;18.394;2022-12-11T13:42:33;98869.04;;;-0.06;100.00
24440;BME280;12618;54.386;18.394;2022-12-11T13:45:01;98868.16;;;-0.05;100.00
24440;BME280;12618;54.386;18.394;2022-12-11T13:47:32;98873.39;;;-0.08;100.00
24440;BME280;12618;54.386;18.394;2022-12-11T13:50:12;98876.88;;;-0.09;100.00
24440;BME280;12618;54.386;18.394;2022-12-11T13:52:51;98867.43;;;-0.11;100.00
24440;BME280;12618;54.386;18.394;2022-12-11T13:55:15;98876.12;;;-0.14;100.00
24440;BME280;12618;54.386;18.394;2022-12-11T13:57:47;98869.22;;;-0.15;100.00
24440;BME280;12618;54.386;18.394;2022-12-11T14:00:19;98870.53;;;-0.16;100.00
24440;BME280;12618;54.386;18.394;2022-12-11T14:02:50;98866.25;;;-0.19;100.00
24440;BME280;12618;54.386;18.394;2022-12-11T14:05:21;98875.35;;;-0.20;100.00
24440;BME280;12618;54.386;18.394;2022-12-11T14:07:54;98872.78;;;-0.22;100.00
24440;BME280;12618;54.386;18.394;2022-12-11T14:10:25;98870.27;;;-0.25;100.00